sensor_id;sensor_type;location;lat;lon;timestamp;P1;durP1;ratioP1;P2;durP2;ratioP2
11616;SDS011;5864;52.998;9.068;2022-10-16T00:00:47;4.40;;;2.00;;
11616;SDS011;5864;52.998;9.068;2022-10-16T00:03:15;3.10;;;2.13;;
11616;SDS011;5864;52.998;9.068;2022-10-16T00:05:44;3.30;;;2.00;;
11616;SDS011;5864;52.998;9.068;2022-10-16T00:08:12;2.07;;;1.60;;
11616;SDS011;5864;52.998;9.068;2022-10-16T00:10:40;4.07;;;1.90;;
11616;SDS011;5864;52.998;9.068;2022-10-16T00:13:07;2.20;;;1.60;;
11616;SDS011;5864;52.998;9.068;2022-10-16T00:15:35;4.07;;;1.90;;
11616;SDS011;5864;52.998;9.068;2022-10-16T00:18:04;1.90;;;1.70;;
11616;SDS011;5864;52.998;9.068;2022-10-16T00:20:33;3.93;;;1.80;;
11616;SDS011;5864;52.998;9.068;2022-10-16T00:23:04;3.87;;;1.70;;
11616;SDS011;5864;52.998;9.068;2022-10-16T00:25:31;3.07;;;1.80;;
11616;SDS011;5864;52.998;9.068;2022-10-16T00:27:59;2.70;;;1.63;;
11616;SDS011;5864;52.998;9.068;2022-10-16T00:30:27;4.23;;;1.80;;
11616;SDS011;5864;52.998;9.068;2022-10-16T00:32:54;2.67;;;1.70;;
11616;SDS011;5864;52.998;9.068;2022-10-16T00:35:22;5.13;;;2.10;;
11616;SDS011;5864;52.998;9.068;2022-10-16T00:37:50;2.60;;;1.60;;
11616;SDS011;5864;52.998;9.068;2022-10-16T00:40:19;3.40;;;2.17;;
11616;SDS011;5864;52.998;9.068;2022-10-16T00:42:46;5.27;;;1.77;;
11616;SDS011;5864;52.998;9.068;2022-10-16T00:45:14;2.43;;;1.93;;
11616;SDS011;5864;52.998;9.068;2022-10-16T00:47:43;11.07;;;1.97;;
11616;SDS011;5864;52.998;9.068;2022-10-16T00:50:16;5.17;;;2.10;;
11616;SDS011;5864;52.998;9.068;2022-10-16T00:52:49;1.83;;;1.73;;
11616;SDS011;5864;52.998;9.068;2022-10-16T00:55:20;2.23;;;1.60;;
11616;SDS011;5864;52.998;9.068;2022-10-16T00:57:48;2.53;;;2.10;;
11616;SDS011;5864;52.998;9.068;2022-10-16T01:00:18;2.60;;;1.90;;
11616;SDS011;5864;52.998;9.068;2022-10-16T01:02:51;2.83;;;2.00;;
11616;SDS011;5864;52.998;9.068;2022-10-16T01:05:20;3.13;;;1.90;;
11616;SDS011;5864;52.998;9.068;2022-10-16T01:07:51;2.77;;;2.00;;
11616;SDS011;5864;52.998;9.068;2022-10-16T01:10:27;7.70;;;2.33;;
11616;SDS011;5864;52.998;9.068;2022-10-16T01:13:03;2.40;;;2.00;;
11616;SDS011;5864;52.998;9.068;2022-10-16T01:15:35;4.03;;;2.20;;
11616;SDS011;5864;52.998;9.068;2022-10-16T01:18:08;4.33;;;2.50;;
11616;SDS011;5864;52.998;9.068;2022-10-16T01:20:42;2.90;;;2.00;;
11616;SDS011;5864;52.998;9.068;2022-10-16T01:23:16;3.23;;;2.00;;
11616;SDS011;5864;52.998;9.068;2022-10-16T01:28:52;6.10;;;2.60;;
11616;SDS011;5864;52.998;9.068;2022-10-16T01:31:25;3.50;;;2.40;;
11616;SDS011;5864;52.998;9.068;2022-10-16T01:33:56;3.03;;;2.30;;
11616;SDS011;5864;52.998;9.068;2022-10-16T01:36:31;6.80;;;2.20;;
11616;SDS011;5864;52.998;9.068;2022-10-16T01:39:03;4.03;;;2.47;;
11616;SDS011;5864;52.998;9.068;2022-10-16T01:41:36;3.30;;;2.33;;
11616;SDS011;5864;52.998;9.068;2022-10-16T01:44:08;4.60;;;2.30;;
11616;SDS011;5864;52.998;9.068;2022-10-16T01:46:41;2.57;;;1.90;;
11616;SDS011;5864;52.998;9.068;2022-10-16T01:49:12;5.70;;;2.17;;
11616;SDS011;5864;52.998;9.068;2022-10-16T01:51:41;5.83;;;2.60;;
11616;SDS011;5864;52.998;9.068;2022-10-16T01:54:12;4.40;;;2.70;;
11616;SDS011;5864;52.998;9.068;2022-10-16T01:56:42;3.20;;;2.30;;
11616;SDS011;5864;52.998;9.068;2022-10-16T01:59:12;4.00;;;2.30;;
11616;SDS011;5864;52.998;9.068;2022-10-16T02:01:42;3.57;;;2.40;;
11616;SDS011;5864;52.998;9.068;2022-10-16T02:04:15;4.57;;;2.20;;
11616;SDS011;5864;52.998;9.068;2022-10-16T02:06:51;5.27;;;2.13;;
11616;SDS011;5864;52.998;9.068;2022-10-16T02:09:19;6.17;;;2.40;;
11616;SDS011;5864;52.998;9.068;2022-10-16T02:11:47;5.00;;;2.27;;
11616;SDS011;5864;52.998;9.068;2022-10-16T02:14:21;3.67;;;2.27;;
11616;SDS011;5864;52.998;9.068;2022-10-16T02:16:50;4.03;;;2.30;;
11616;SDS011;5864;52.998;9.068;2022-10-16T02:19:17;3.77;;;2.20;;
11616;SDS011;5864;52.998;9.068;2022-10-16T02:21:48;5.43;;;2.40;;
11616;SDS011;5864;52.998;9.068;2022-10-16T02:24:19;4.40;;;2.50;;
11616;SDS011;5864;52.998;9.068;2022-10-16T02:26:57;4.63;;;2.33;;
11616;SDS011;5864;52.998;9.068;2022-10-16T02:29:32;4.07;;;2.20;;
11616;SDS011;5864;52.998;9.068;2022-10-16T02:32:04;4.20;;;2.23;;
11616;SDS011;5864;52.998;9.068;2022-10-16T02:34:35;2.97;;;2.07;;
11616;SDS011;5864;52.998;9.068;2022-10-16T02:37:03;3.30;;;2.30;;
11616;SDS011;5864;52.998;9.068;2022-10-16T02:39:32;4.07;;;2.20;;
11616;SDS011;5864;52.998;9.068;2022-10-16T02:42:01;5.73;;;2.30;;
11616;SDS011;5864;52.998;9.068;2022-10-16T02:44:29;4.77;;;2.87;;
11616;SDS011;5864;52.998;9.068;2022-10-16T02:46:58;3.17;;;2.47;;
11616;SDS011;5864;52.998;9.068;2022-10-16T02:49:26;4.53;;;2.27;;
11616;SDS011;5864;52.998;9.068;2022-10-16T02:51:53;3.53;;;2.50;;
11616;SDS011;5864;52.998;9.068;2022-10-16T02:54:20;3.07;;;2.67;;
11616;SDS011;5864;52.998;9.068;2022-10-16T02:56:48;3.87;;;2.60;;
11616;SDS011;5864;52.998;9.068;2022-10-16T02:59:15;3.13;;;2.77;;
11616;SDS011;5864;52.998;9.068;2022-10-16T03:01:43;4.13;;;2.73;;
11616;SDS011;5864;52.998;9.068;2022-10-16T03:04:12;5.00;;;3.00;;
11616;SDS011;5864;52.998;9.068;2022-10-16T03:06:40;6.27;;;2.90;;
11616;SDS011;5864;52.998;9.068;2022-10-16T03:09:08;8.10;;;3.33;;
11616;SDS011;5864;52.998;9.068;2022-10-16T03:11:35;6.83;;;3.10;;
11616;SDS011;5864;52.998;9.068;2022-10-16T03:14:03;3.80;;;3.17;;
11616;SDS011;5864;52.998;9.068;2022-10-16T03:16:31;7.67;;;4.00;;
11616;SDS011;5864;52.998;9.068;2022-10-16T03:18:58;6.53;;;3.20;;
11616;SDS011;5864;52.998;9.068;2022-10-16T03:21:27;4.37;;;2.90;;
11616;SDS011;5864;52.998;9.068;2022-10-16T03:23:55;4.17;;;3.27;;
11616;SDS011;5864;52.998;9.068;2022-10-16T03:26:22;7.30;;;4.60;;
11616;SDS011;5864;52.998;9.068;2022-10-16T03:28:50;6.50;;;4.10;;
11616;SDS011;5864;52.998;9.068;2022-10-16T03:31:17;7.63;;;4.13;;
11616;SDS011;5864;52.998;9.068;2022-10-16T03:33:45;9.07;;;4.50;;
11616;SDS011;5864;52.998;9.068;2022-10-16T03:36:13;5.83;;;4.50;;
11616;SDS011;5864;52.998;9.068;2022-10-16T03:38:42;7.53;;;4.90;;
11616;SDS011;5864;52.998;9.068;2022-10-16T03:41:09;7.73;;;4.47;;
11616;SDS011;5864;52.998;9.068;2022-10-16T03:43:36;7.23;;;4.93;;
11616;SDS011;5864;52.998;9.068;2022-10-16T03:46:04;9.30;;;5.47;;
11616;SDS011;5864;52.998;9.068;2022-10-16T03:48:31;7.97;;;5.70;;
11616;SDS011;5864;52.998;9.068;2022-10-16T03:50:59;8.17;;;5.43;;
11616;SDS011;5864;52.998;9.068;2022-10-16T03:53:27;5.63;;;4.80;;
11616;SDS011;5864;52.998;9.068;2022-10-16T03:55:55;8.83;;;5.40;;
11616;SDS011;5864;52.998;9.068;2022-10-16T03:58:24;8.93;;;5.77;;
11616;SDS011;5864;52.998;9.068;2022-10-16T04:00:52;6.50;;;5.40;;
11616;SDS011;5864;52.998;9.068;2022-10-16T04:03:19;8.40;;;5.50;;
11616;SDS011;5864;52.998;9.068;2022-10-16T04:05:47;9.77;;;6.20;;
11616;SDS011;5864;52.998;9.068;2022-10-16T04:08:14;7.07;;;5.10;;
11616;SDS011;5864;52.998;9.068;2022-10-16T04:10:42;7.33;;;5.17;;
11616;SDS011;5864;52.998;9.068;2022-10-16T04:13:11;8.80;;;6.13;;
11616;SDS011;5864;52.998;9.068;2022-10-16T04:15:39;7.67;;;5.50;;
11616;SDS011;5864;52.998;9.068;2022-10-16T04:18:07;7.37;;;5.50;;
11616;SDS011;5864;52.998;9.068;2022-10-16T04:20:34;7.53;;;5.17;;
11616;SDS011;5864;52.998;9.068;2022-10-16T04:23:02;9.70;;;5.57;;
11616;SDS011;5864;52.998;9.068;2022-10-16T04:25:30;9.57;;;5.77;;
11616;SDS011;5864;52.998;9.068;2022-10-16T04:27:58;10.23;;;6.17;;
11616;SDS011;5864;52.998;9.068;2022-10-16T04:30:28;10.70;;;6.00;;
11616;SDS011;5864;52.998;9.068;2022-10-16T04:32:55;8.63;;;5.30;;
11616;SDS011;5864;52.998;9.068;2022-10-16T04:35:22;6.90;;;5.03;;
11616;SDS011;5864;52.998;9.068;2022-10-16T04:37:50;7.63;;;4.97;;
11616;SDS011;5864;52.998;9.068;2022-10-16T04:40:17;9.20;;;5.90;;
11616;SDS011;5864;52.998;9.068;2022-10-16T04:42:45;9.03;;;5.17;;
11616;SDS011;5864;52.998;9.068;2022-10-16T04:45:13;10.23;;;5.70;;
11616;SDS011;5864;52.998;9.068;2022-10-16T04:47:41;8.00;;;5.23;;
11616;SDS011;5864;52.998;9.068;2022-10-16T04:50:09;8.23;;;5.77;;
11616;SDS011;5864;52.998;9.068;2022-10-16T04:52:36;8.57;;;5.77;;
11616;SDS011;5864;52.998;9.068;2022-10-16T04:55:04;9.20;;;5.47;;
11616;SDS011;5864;52.998;9.068;2022-10-16T04:57:32;10.20;;;6.13;;
11616;SDS011;5864;52.998;9.068;2022-10-16T05:00:00;9.87;;;6.43;;
11616;SDS011;5864;52.998;9.068;2022-10-16T05:02:28;12.00;;;5.90;;
11616;SDS011;5864;52.998;9.068;2022-10-16T05:04:57;9.30;;;6.33;;
11616;SDS011;5864;52.998;9.068;2022-10-16T05:07:25;11.30;;;5.87;;
11616;SDS011;5864;52.998;9.068;2022-10-16T05:09:52;9.40;;;5.73;;
11616;SDS011;5864;52.998;9.068;2022-10-16T05:12:20;11.93;;;6.20;;
11616;SDS011;5864;52.998;9.068;2022-10-16T05:14:47;10.40;;;6.37;;
11616;SDS011;5864;52.998;9.068;2022-10-16T05:17:15;11.47;;;6.37;;
11616;SDS011;5864;52.998;9.068;2022-10-16T05:19:42;11.33;;;6.20;;
11616;SDS011;5864;52.998;9.068;2022-10-16T05:22:11;7.53;;;5.50;;
11616;SDS011;5864;52.998;9.068;2022-10-16T05:24:39;11.57;;;5.73;;
11616;SDS011;5864;52.998;9.068;2022-10-16T05:27:06;7.87;;;5.87;;
11616;SDS011;5864;52.998;9.068;2022-10-16T05:29:34;8.73;;;5.73;;
11616;SDS011;5864;52.998;9.068;2022-10-16T05:32:01;11.33;;;6.00;;
11616;SDS011;5864;52.998;9.068;2022-10-16T05:34:29;10.10;;;6.10;;
11616;SDS011;5864;52.998;9.068;2022-10-16T05:36:57;9.87;;;5.70;;
11616;SDS011;5864;52.998;9.068;2022-10-16T05:39:26;9.07;;;5.43;;
11616;SDS011;5864;52.998;9.068;2022-10-16T05:41:53;8.87;;;5.70;;
11616;SDS011;5864;52.998;9.068;2022-10-16T05:44:21;8.57;;;6.00;;
11616;SDS011;5864;52.998;9.068;2022-10-16T05:46:48;9.70;;;6.27;;
11616;SDS011;5864;52.998;9.068;2022-10-16T05:49:16;11.27;;;5.63;;
11616;SDS011;5864;52.998;9.068;2022-10-16T05:51:43;6.70;;;5.30;;
11616;SDS011;5864;52.998;9.068;2022-10-16T05:54:11;6.80;;;5.50;;
11616;SDS011;5864;52.998;9.068;2022-10-16T05:56:40;9.03;;;6.27;;
11616;SDS011;5864;52.998;9.068;2022-10-16T05:59:07;8.87;;;5.57;;
11616;SDS011;5864;52.998;9.068;2022-10-16T06:01:34;7.77;;;5.73;;
11616;SDS011;5864;52.998;9.068;2022-10-16T06:04:02;9.80;;;6.30;;
11616;SDS011;5864;52.998;9.068;2022-10-16T06:06:30;8.37;;;5.97;;
11616;SDS011;5864;52.998;9.068;2022-10-16T06:08:57;6.23;;;5.27;;
11616;SDS011;5864;52.998;9.068;2022-10-16T06:11:26;8.87;;;6.30;;
11616;SDS011;5864;52.998;9.068;2022-10-16T06:13:59;7.67;;;5.83;;
11616;SDS011;5864;52.998;9.068;2022-10-16T06:16:28;7.33;;;5.70;;
11616;SDS011;5864;52.998;9.068;2022-10-16T06:18:56;7.47;;;5.90;;
11616;SDS011;5864;52.998;9.068;2022-10-16T06:21:25;7.30;;;5.33;;
11616;SDS011;5864;52.998;9.068;2022-10-16T06:23:54;10.07;;;5.93;;
11616;SDS011;5864;52.998;9.068;2022-10-16T06:26:23;13.80;;;5.20;;
11616;SDS011;5864;52.998;9.068;2022-10-16T06:28:53;9.33;;;5.53;;
11616;SDS011;5864;52.998;9.068;2022-10-16T06:31:23;6.37;;;4.70;;
11616;SDS011;5864;52.998;9.068;2022-10-16T06:33:54;7.93;;;4.53;;
11616;SDS011;5864;52.998;9.068;2022-10-16T06:36:23;9.63;;;5.23;;
11616;SDS011;5864;52.998;9.068;2022-10-16T06:38:51;7.60;;;5.10;;
11616;SDS011;5864;52.998;9.068;2022-10-16T06:41:19;8.83;;;4.73;;
11616;SDS011;5864;52.998;9.068;2022-10-16T06:43:48;10.27;;;5.07;;
11616;SDS011;5864;52.998;9.068;2022-10-16T06:46:16;5.53;;;4.40;;
11616;SDS011;5864;52.998;9.068;2022-10-16T06:48:47;8.13;;;5.00;;
11616;SDS011;5864;52.998;9.068;2022-10-16T06:51:15;8.40;;;4.77;;
11616;SDS011;5864;52.998;9.068;2022-10-16T06:53:44;5.57;;;4.57;;
11616;SDS011;5864;52.998;9.068;2022-10-16T06:56:15;4.63;;;4.17;;
11616;SDS011;5864;52.998;9.068;2022-10-16T06:58:43;5.27;;;4.23;;
11616;SDS011;5864;52.998;9.068;2022-10-16T07:01:12;6.27;;;3.93;;
11616;SDS011;5864;52.998;9.068;2022-10-16T07:03:40;6.73;;;3.80;;
11616;SDS011;5864;52.998;9.068;2022-10-16T07:06:12;9.60;;;3.80;;
11616;SDS011;5864;52.998;9.068;2022-10-16T07:08:42;6.37;;;3.50;;
11616;SDS011;5864;52.998;9.068;2022-10-16T07:11:11;5.33;;;3.93;;
11616;SDS011;5864;52.998;9.068;2022-10-16T07:13:41;5.97;;;3.87;;
11616;SDS011;5864;52.998;9.068;2022-10-16T07:16:10;5.87;;;3.70;;
11616;SDS011;5864;52.998;9.068;2022-10-16T07:18:39;4.60;;;3.20;;
11616;SDS011;5864;52.998;9.068;2022-10-16T07:21:09;3.27;;;2.90;;
11616;SDS011;5864;52.998;9.068;2022-10-16T07:23:40;6.83;;;3.30;;
11616;SDS011;5864;52.998;9.068;2022-10-16T07:26:09;3.37;;;2.70;;
11616;SDS011;5864;52.998;9.068;2022-10-16T07:28:37;4.23;;;3.10;;
11616;SDS011;5864;52.998;9.068;2022-10-16T07:31:06;4.27;;;2.87;;
11616;SDS011;5864;52.998;9.068;2022-10-16T07:33:36;4.10;;;3.07;;
11616;SDS011;5864;52.998;9.068;2022-10-16T07:36:05;3.67;;;2.43;;
11616;SDS011;5864;52.998;9.068;2022-10-16T07:38:34;4.07;;;2.60;;
11616;SDS011;5864;52.998;9.068;2022-10-16T07:41:04;2.67;;;2.40;;
11616;SDS011;5864;52.998;9.068;2022-10-16T07:43:32;4.13;;;2.70;;
11616;SDS011;5864;52.998;9.068;2022-10-16T07:46:00;3.47;;;2.30;;
11616;SDS011;5864;52.998;9.068;2022-10-16T07:48:28;3.67;;;2.40;;
11616;SDS011;5864;52.998;9.068;2022-10-16T07:50:58;2.37;;;2.10;;
11616;SDS011;5864;52.998;9.068;2022-10-16T07:53:26;3.13;;;2.33;;
11616;SDS011;5864;52.998;9.068;2022-10-16T07:55:57;3.40;;;2.30;;
11616;SDS011;5864;52.998;9.068;2022-10-16T07:58:25;4.73;;;2.30;;
11616;SDS011;5864;52.998;9.068;2022-10-16T08:00:53;5.40;;;2.23;;
11616;SDS011;5864;52.998;9.068;2022-10-16T08:03:21;2.33;;;2.13;;
11616;SDS011;5864;52.998;9.068;2022-10-16T08:05:49;2.67;;;2.30;;
11616;SDS011;5864;52.998;9.068;2022-10-16T08:08:17;3.03;;;2.43;;
11616;SDS011;5864;52.998;9.068;2022-10-16T08:10:45;2.80;;;2.20;;
11616;SDS011;5864;52.998;9.068;2022-10-16T08:13:14;5.00;;;2.43;;
11616;SDS011;5864;52.998;9.068;2022-10-16T08:15:42;3.43;;;2.33;;
11616;SDS011;5864;52.998;9.068;2022-10-16T08:18:11;3.67;;;2.27;;
11616;SDS011;5864;52.998;9.068;2022-10-16T08:20:41;4.73;;;2.57;;
11616;SDS011;5864;52.998;9.068;2022-10-16T08:23:09;7.30;;;2.50;;
11616;SDS011;5864;52.998;9.068;2022-10-16T08:25:38;4.47;;;2.10;;
11616;SDS011;5864;52.998;9.068;2022-10-16T08:28:06;3.63;;;2.20;;
11616;SDS011;5864;52.998;9.068;2022-10-16T08:30:36;3.10;;;2.27;;
11616;SDS011;5864;52.998;9.068;2022-10-16T08:33:04;2.77;;;2.00;;
11616;SDS011;5864;52.998;9.068;2022-10-16T08:35:32;7.57;;;2.30;;
11616;SDS011;5864;52.998;9.068;2022-10-16T08:38:01;2.67;;;1.87;;
11616;SDS011;5864;52.998;9.068;2022-10-16T08:40:30;4.80;;;1.90;;
11616;SDS011;5864;52.998;9.068;2022-10-16T08:43:03;2.13;;;1.80;;
11616;SDS011;5864;52.998;9.068;2022-10-16T08:45:45;3.33;;;2.00;;
11616;SDS011;5864;52.998;9.068;2022-10-16T08:48:26;2.60;;;2.00;;
11616;SDS011;5864;52.998;9.068;2022-10-16T08:50:57;2.70;;;1.73;;
11616;SDS011;5864;52.998;9.068;2022-10-16T08:53:29;3.83;;;1.87;;
11616;SDS011;5864;52.998;9.068;2022-10-16T08:56:00;3.13;;;1.63;;
11616;SDS011;5864;52.998;9.068;2022-10-16T08:58:28;4.37;;;1.80;;
11616;SDS011;5864;52.998;9.068;2022-10-16T09:00:58;2.80;;;1.53;;
11616;SDS011;5864;52.998;9.068;2022-10-16T09:03:33;3.87;;;2.00;;
11616;SDS011;5864;52.998;9.068;2022-10-16T09:06:15;3.97;;;1.50;;
11616;SDS011;5864;52.998;9.068;2022-10-16T09:09:02;4.37;;;1.67;;
11616;SDS011;5864;52.998;9.068;2022-10-16T09:11:38;2.97;;;1.53;;
11616;SDS011;5864;52.998;9.068;2022-10-16T09:14:17;3.57;;;1.73;;
11616;SDS011;5864;52.998;9.068;2022-10-16T09:17:06;3.97;;;1.73;;
11616;SDS011;5864;52.998;9.068;2022-10-16T09:19:48;1.93;;;1.63;;
11616;SDS011;5864;52.998;9.068;2022-10-16T09:22:21;2.67;;;1.77;;
11616;SDS011;5864;52.998;9.068;2022-10-16T09:24:55;4.03;;;1.80;;
11616;SDS011;5864;52.998;9.068;2022-10-16T09:27:27;2.40;;;1.40;;
11616;SDS011;5864;52.998;9.068;2022-10-16T09:29:54;4.10;;;1.50;;
11616;SDS011;5864;52.998;9.068;2022-10-16T09:32:23;3.50;;;1.47;;
11616;SDS011;5864;52.998;9.068;2022-10-16T09:34:52;2.10;;;1.20;;
11616;SDS011;5864;52.998;9.068;2022-10-16T09:37:23;1.83;;;1.30;;
11616;SDS011;5864;52.998;9.068;2022-10-16T09:39:52;2.17;;;1.43;;
11616;SDS011;5864;52.998;9.068;2022-10-16T09:42:21;3.30;;;1.43;;
11616;SDS011;5864;52.998;9.068;2022-10-16T09:44:52;2.50;;;1.60;;
11616;SDS011;5864;52.998;9.068;2022-10-16T09:47:21;1.70;;;1.30;;
11616;SDS011;5864;52.998;9.068;2022-10-16T09:49:53;1.87;;;1.30;;
11616;SDS011;5864;52.998;9.068;2022-10-16T09:52:25;4.77;;;2.10;;
11616;SDS011;5864;52.998;9.068;2022-10-16T09:54:54;2.97;;;1.70;;
11616;SDS011;5864;52.998;9.068;2022-10-16T09:57:23;3.53;;;1.50;;
11616;SDS011;5864;52.998;9.068;2022-10-16T09:59:51;8.60;;;2.10;;
11616;SDS011;5864;52.998;9.068;2022-10-16T10:02:23;1.93;;;1.33;;
11616;SDS011;5864;52.998;9.068;2022-10-16T10:05:00;3.77;;;1.30;;
11616;SDS011;5864;52.998;9.068;2022-10-16T10:07:30;2.27;;;1.50;;
11616;SDS011;5864;52.998;9.068;2022-10-16T10:09:59;2.27;;;1.53;;
11616;SDS011;5864;52.998;9.068;2022-10-16T10:12:29;1.83;;;1.50;;
11616;SDS011;5864;52.998;9.068;2022-10-16T10:15:03;2.40;;;1.50;;
11616;SDS011;5864;52.998;9.068;2022-10-16T10:17:44;2.60;;;1.47;;
11616;SDS011;5864;52.998;9.068;2022-10-16T10:20:18;3.60;;;1.50;;
11616;SDS011;5864;52.998;9.068;2022-10-16T10:22:51;3.53;;;1.40;;
11616;SDS011;5864;52.998;9.068;2022-10-16T10:25:20;2.50;;;1.20;;
11616;SDS011;5864;52.998;9.068;2022-10-16T10:28:04;5.00;;;1.60;;
11616;SDS011;5864;52.998;9.068;2022-10-16T10:30:56;2.10;;;1.30;;
11616;SDS011;5864;52.998;9.068;2022-10-16T10:33:30;3.67;;;1.47;;
11616;SDS011;5864;52.998;9.068;2022-10-16T10:36:08;3.03;;;1.50;;
11616;SDS011;5864;52.998;9.068;2022-10-16T10:38:47;3.20;;;1.40;;
11616;SDS011;5864;52.998;9.068;2022-10-16T10:41:22;2.17;;;1.27;;
11616;SDS011;5864;52.998;9.068;2022-10-16T10:44:03;3.17;;;1.50;;
11616;SDS011;5864;52.998;9.068;2022-10-16T10:46:41;2.87;;;1.40;;
11616;SDS011;5864;52.998;9.068;2022-10-16T10:49:19;3.37;;;1.70;;
11616;SDS011;5864;52.998;9.068;2022-10-16T10:52:01;3.53;;;1.43;;
11616;SDS011;5864;52.998;9.068;2022-10-16T10:54:41;3.33;;;1.63;;
11616;SDS011;5864;52.998;9.068;2022-10-16T10:57:20;4.03;;;1.30;;
11616;SDS011;5864;52.998;9.068;2022-10-16T10:59:54;3.57;;;1.43;;
11616;SDS011;5864;52.998;9.068;2022-10-16T11:02:40;1.80;;;1.40;;
11616;SDS011;5864;52.998;9.068;2022-10-16T11:08:06;1.50;;;1.20;;
11616;SDS011;5864;52.998;9.068;2022-10-16T11:10:42;3.43;;;1.40;;
11616;SDS011;5864;52.998;9.068;2022-10-16T11:13:19;2.70;;;1.30;;
11616;SDS011;5864;52.998;9.068;2022-10-16T11:15:57;5.23;;;1.40;;
11616;SDS011;5864;52.998;9.068;2022-10-16T11:18:27;3.47;;;1.57;;
11616;SDS011;5864;52.998;9.068;2022-10-16T11:21:01;4.77;;;1.43;;
11616;SDS011;5864;52.998;9.068;2022-10-16T11:23:33;1.63;;;1.30;;
11616;SDS011;5864;52.998;9.068;2022-10-16T11:26:09;1.93;;;1.43;;
11616;SDS011;5864;52.998;9.068;2022-10-16T11:28:42;2.57;;;1.40;;
11616;SDS011;5864;52.998;9.068;2022-10-16T11:31:13;3.57;;;1.30;;
11616;SDS011;5864;52.998;9.068;2022-10-16T11:33:47;2.53;;;1.10;;
11616;SDS011;5864;52.998;9.068;2022-10-16T11:36:23;3.07;;;1.30;;
11616;SDS011;5864;52.998;9.068;2022-10-16T11:38:58;4.87;;;1.40;;
11616;SDS011;5864;52.998;9.068;2022-10-16T11:41:32;2.33;;;1.33;;
11616;SDS011;5864;52.998;9.068;2022-10-16T11:44:06;2.67;;;1.20;;
11616;SDS011;5864;52.998;9.068;2022-10-16T11:46:43;5.37;;;1.57;;
11616;SDS011;5864;52.998;9.068;2022-10-16T11:49:18;2.50;;;1.13;;
11616;SDS011;5864;52.998;9.068;2022-10-16T11:51:51;2.43;;;1.43;;
11616;SDS011;5864;52.998;9.068;2022-10-16T11:54:27;3.80;;;1.53;;
11616;SDS011;5864;52.998;9.068;2022-10-16T11:57:01;1.90;;;1.23;;
11616;SDS011;5864;52.998;9.068;2022-10-16T11:59:35;3.37;;;1.50;;
11616;SDS011;5864;52.998;9.068;2022-10-16T12:02:16;1.93;;;1.10;;
11616;SDS011;5864;52.998;9.068;2022-10-16T12:05:10;5.10;;;1.23;;
11616;SDS011;5864;52.998;9.068;2022-10-16T12:07:49;3.03;;;1.50;;
11616;SDS011;5864;52.998;9.068;2022-10-16T12:10:25;2.17;;;1.40;;
11616;SDS011;5864;52.998;9.068;2022-10-16T12:12:57;4.10;;;1.40;;
11616;SDS011;5864;52.998;9.068;2022-10-16T12:15:25;4.97;;;1.87;;
11616;SDS011;5864;52.998;9.068;2022-10-16T12:17:55;1.80;;;1.20;;
11616;SDS011;5864;52.998;9.068;2022-10-16T12:20:27;3.50;;;1.30;;
11616;SDS011;5864;52.998;9.068;2022-10-16T12:22:59;3.77;;;1.20;;
11616;SDS011;5864;52.998;9.068;2022-10-16T12:25:29;3.60;;;1.30;;
11616;SDS011;5864;52.998;9.068;2022-10-16T12:28:02;2.73;;;1.53;;
11616;SDS011;5864;52.998;9.068;2022-10-16T12:30:33;3.43;;;1.77;;
11616;SDS011;5864;52.998;9.068;2022-10-16T12:33:03;4.17;;;1.43;;
11616;SDS011;5864;52.998;9.068;2022-10-16T12:35:33;3.93;;;1.30;;
11616;SDS011;5864;52.998;9.068;2022-10-16T12:38:15;3.03;;;1.10;;
11616;SDS011;5864;52.998;9.068;2022-10-16T12:40:44;3.60;;;1.40;;
11616;SDS011;5864;52.998;9.068;2022-10-16T12:43:25;2.73;;;1.37;;
11616;SDS011;5864;52.998;9.068;2022-10-16T12:46:24;3.97;;;1.33;;
11616;SDS011;5864;52.998;9.068;2022-10-16T12:49:20;4.47;;;1.67;;
11616;SDS011;5864;52.998;9.068;2022-10-16T12:51:51;3.33;;;1.40;;
11616;SDS011;5864;52.998;9.068;2022-10-16T12:54:21;1.80;;;1.30;;
11616;SDS011;5864;52.998;9.068;2022-10-16T12:56:58;4.20;;;1.50;;
11616;SDS011;5864;52.998;9.068;2022-10-16T12:59:42;3.43;;;1.33;;
11616;SDS011;5864;52.998;9.068;2022-10-16T13:02:19;3.43;;;1.23;;
11616;SDS011;5864;52.998;9.068;2022-10-16T13:05:22;6.27;;;2.80;;
11616;SDS011;5864;52.998;9.068;2022-10-16T13:08:02;4.97;;;1.50;;
11616;SDS011;5864;52.998;9.068;2022-10-16T13:10:45;2.40;;;1.20;;
11616;SDS011;5864;52.998;9.068;2022-10-16T13:13:38;4.67;;;1.43;;
11616;SDS011;5864;52.998;9.068;2022-10-16T13:16:27;3.30;;;1.30;;
11616;SDS011;5864;52.998;9.068;2022-10-16T13:19:02;6.10;;;1.50;;
11616;SDS011;5864;52.998;9.068;2022-10-16T13:21:39;2.30;;;1.27;;
11616;SDS011;5864;52.998;9.068;2022-10-16T13:24:16;5.77;;;1.30;;
11616;SDS011;5864;52.998;9.068;2022-10-16T13:26:55;4.60;;;1.37;;
11616;SDS011;5864;52.998;9.068;2022-10-16T13:29:29;2.13;;;1.30;;
11616;SDS011;5864;52.998;9.068;2022-10-16T13:31:58;4.87;;;1.43;;
11616;SDS011;5864;52.998;9.068;2022-10-16T13:34:27;3.80;;;1.57;;
11616;SDS011;5864;52.998;9.068;2022-10-16T13:36:55;3.03;;;1.30;;
11616;SDS011;5864;52.998;9.068;2022-10-16T13:39:23;2.33;;;1.50;;
11616;SDS011;5864;52.998;9.068;2022-10-16T13:42:02;3.83;;;1.20;;
11616;SDS011;5864;52.998;9.068;2022-10-16T13:44:34;4.70;;;1.40;;
11616;SDS011;5864;52.998;9.068;2022-10-16T13:47:10;3.77;;;1.90;;
11616;SDS011;5864;52.998;9.068;2022-10-16T13:49:43;4.40;;;2.00;;
11616;SDS011;5864;52.998;9.068;2022-10-16T13:52:17;5.53;;;1.73;;
11616;SDS011;5864;52.998;9.068;2022-10-16T13:54:46;6.50;;;1.70;;
11616;SDS011;5864;52.998;9.068;2022-10-16T13:57:16;3.10;;;1.37;;
11616;SDS011;5864;52.998;9.068;2022-10-16T13:59:44;3.63;;;1.37;;
11616;SDS011;5864;52.998;9.068;2022-10-16T14:02:17;3.20;;;1.43;;
11616;SDS011;5864;52.998;9.068;2022-10-16T14:04:47;3.20;;;1.50;;
11616;SDS011;5864;52.998;9.068;2022-10-16T14:07:18;3.40;;;1.10;;
11616;SDS011;5864;52.998;9.068;2022-10-16T14:09:50;5.30;;;1.87;;
11616;SDS011;5864;52.998;9.068;2022-10-16T14:12:19;4.17;;;1.53;;
11616;SDS011;5864;52.998;9.068;2022-10-16T14:14:50;3.53;;;1.30;;
11616;SDS011;5864;52.998;9.068;2022-10-16T14:17:20;5.70;;;1.30;;
11616;SDS011;5864;52.998;9.068;2022-10-16T14:19:51;3.27;;;1.40;;
11616;SDS011;5864;52.998;9.068;2022-10-16T14:22:27;3.13;;;1.47;;
11616;SDS011;5864;52.998;9.068;2022-10-16T14:24:57;5.10;;;1.47;;
11616;SDS011;5864;52.998;9.068;2022-10-16T14:27:28;6.00;;;1.80;;
11616;SDS011;5864;52.998;9.068;2022-10-16T14:32:53;5.43;;;1.40;;
11616;SDS011;5864;52.998;9.068;2022-10-16T14:35:22;2.83;;;1.20;;
11616;SDS011;5864;52.998;9.068;2022-10-16T14:37:51;3.57;;;1.53;;
11616;SDS011;5864;52.998;9.068;2022-10-16T14:40:20;3.67;;;1.60;;
11616;SDS011;5864;52.998;9.068;2022-10-16T14:42:51;3.90;;;1.37;;
11616;SDS011;5864;52.998;9.068;2022-10-16T14:45:20;3.20;;;1.30;;
11616;SDS011;5864;52.998;9.068;2022-10-16T14:47:50;3.10;;;1.70;;
11616;SDS011;5864;52.998;9.068;2022-10-16T14:50:19;5.77;;;1.43;;
11616;SDS011;5864;52.998;9.068;2022-10-16T14:52:47;3.50;;;1.60;;
11616;SDS011;5864;52.998;9.068;2022-10-16T14:55:15;2.67;;;1.37;;
11616;SDS011;5864;52.998;9.068;2022-10-16T14:57:42;3.27;;;1.50;;
11616;SDS011;5864;52.998;9.068;2022-10-16T15:00:16;3.27;;;1.60;;
11616;SDS011;5864;52.998;9.068;2022-10-16T15:02:46;5.73;;;1.67;;
11616;SDS011;5864;52.998;9.068;2022-10-16T15:05:15;5.23;;;1.73;;
11616;SDS011;5864;52.998;9.068;2022-10-16T15:07:44;4.20;;;1.63;;
11616;SDS011;5864;52.998;9.068;2022-10-16T15:10:12;8.53;;;1.50;;
11616;SDS011;5864;52.998;9.068;2022-10-16T15:12:40;4.70;;;1.43;;
11616;SDS011;5864;52.998;9.068;2022-10-16T15:15:23;5.00;;;1.60;;
11616;SDS011;5864;52.998;9.068;2022-10-16T15:17:59;4.47;;;1.67;;
11616;SDS011;5864;52.998;9.068;2022-10-16T15:20:28;4.17;;;2.10;;
11616;SDS011;5864;52.998;9.068;2022-10-16T15:22:56;5.70;;;2.90;;
11616;SDS011;5864;52.998;9.068;2022-10-16T15:25:32;5.67;;;2.93;;
11616;SDS011;5864;52.998;9.068;2022-10-16T15:28:03;5.03;;;2.80;;
11616;SDS011;5864;52.998;9.068;2022-10-16T15:30:33;7.43;;;2.33;;
11616;SDS011;5864;52.998;9.068;2022-10-16T15:33:01;6.20;;;2.07;;